createdAt,value
2022-11-27T15:54:18.219Z,327.91
2022-11-27T16:07:33.922Z,49.55
2022-11-27T16:12:31.879Z,23.91
2022-11-27T16:17:40.005Z,31.82
2022-11-27T16:22:48.109Z,44.17
2022-11-27T16:28:00.917Z,72.55
2022-11-27T16:33:03.781Z,115.65
2022-11-27T16:38:11.808Z,79.65
2022-11-27T16:43:19.664Z,74.37
2022-11-27T16:48:29.846Z,79.49
2022-11-27T16:53:27.998Z,64.17
2022-11-27T16:58:36.720Z,54.09
2022-11-27T17:03:44.786Z,43.83
2022-11-27T17:08:53.956Z,52.36
2022-11-27T17:14:02.214Z,44.19
2022-11-27T17:19:12.959Z,45.37
2022-11-27T17:24:15.058Z,51.96
2022-11-27T17:29:20.590Z,71.16
2022-11-27T17:34:18.871Z,37.04
2022-11-27T17:39:28.600Z,28.23
2022-11-27T17:44:37.132Z,29.93
2022-11-27T17:49:46.952Z,24.91
2022-11-27T17:54:55.908Z,25.64
2022-11-27T18:00:04.764Z,25.59
2022-11-27T18:05:13.692Z,22.71
2022-11-27T18:10:23.088Z,24.63
2022-11-27T18:15:32.009Z,24.21
2022-11-27T18:20:40.837Z,21.97
2022-11-27T18:25:50.111Z,23.11
2022-11-27T18:31:00.251Z,21.17
2022-11-27T18:35:58.603Z,19.92
2022-11-27T18:41:07.706Z,21.87
2022-11-27T18:46:16.640Z,24.10
2022-11-27T18:51:25.901Z,21.71
2022-11-27T18:56:34.382Z,20.31
2022-11-27T19:01:44.322Z,20.59
2022-11-27T19:06:56.610Z,19.83
2022-11-27T19:11:55.932Z,21.28
2022-11-27T19:17:04.461Z,21.64
2022-11-27T19:22:14.320Z,19.65
2022-11-27T19:27:23.480Z,18.74
2022-11-27T19:32:32.652Z,20.35
2022-11-27T19:37:41.099Z,18.13
2022-11-27T19:42:50.308Z,19.46
2022-11-27T19:47:59.367Z,18.14
2022-11-27T19:53:08.471Z,15.54
2022-11-27T19:58:16.849Z,15.13
2022-11-27T20:03:26.249Z,17.00
2022-11-27T20:08:35.480Z,15.53
2022-11-27T20:13:44.199Z,14.93
2022-11-27T20:18:53.169Z,14.75
2022-11-27T20:24:02.324Z,17.09
2022-11-27T20:29:10.298Z,15.86
2022-11-27T20:34:19.268Z,15.85
2022-11-27T20:39:28.039Z,16.21
2022-11-27T20:44:37.143Z,15.08
2022-11-27T20:49:45.508Z,15.29
2022-11-27T20:54:54.038Z,15.47
2022-11-27T21:00:02.516Z,15.77
2022-11-27T21:05:11.226Z,15.43
2022-11-27T21:10:19.319Z,16.57
2022-11-27T21:15:27.574Z,13.84
2022-11-27T21:20:35.878Z,13.16
2022-11-27T21:25:45.012Z,13.23
2022-11-27T21:30:53.198Z,13.66
2022-11-27T21:36:02.510Z,14.60
2022-11-27T21:41:10.699Z,13.39
2022-11-27T21:46:19.787Z,14.06
2022-11-27T21:51:27.887Z,13.81
2022-11-27T21:56:36.926Z,14.79
2022-11-27T22:01:44.984Z,15.67
2022-11-27T22:06:53.965Z,13.10
2022-11-27T22:12:01.975Z,14.49
2022-11-27T22:17:10.832Z,15.94
2022-11-27T22:22:19.209Z,15.29
2022-11-27T22:27:27.858Z,13.65
2022-11-27T22:32:35.896Z,14.38
2022-11-27T22:37:44.407Z,14.44
2022-11-27T22:42:52.499Z,14.46
2022-11-27T22:48:00.911Z,13.29
2022-11-27T22:53:09.025Z,14.62
2022-11-27T22:58:17.680Z,15.15
2022-11-27T23:03:25.947Z,13.45
2022-11-27T23:08:34.469Z,14.54
2022-11-27T23:13:47.963Z,16.18
2022-11-27T23:18:50.714Z,15.20
2022-11-27T23:23:59.618Z,14.51
2022-11-27T23:29:08.338Z,14.85
2022-11-27T23:34:17.065Z,15.03
2022-11-27T23:39:25.582Z,15.13
2022-11-27T23:44:34.329Z,15.73
2022-11-27T23:49:42.704Z,15.97
2022-11-27T23:54:51.070Z,15.85
2022-11-27T23:59:59.990Z,15.62
